createdAt,value
2022-08-21T00:00:25.616Z,7.87
2022-08-21T00:02:56.345Z,8.47
2022-08-21T00:05:24.257Z,7.40
2022-08-21T00:07:50.855Z,7.57
2022-08-21T00:10:18.132Z,8.27
2022-08-21T00:12:46.350Z,7.43
2022-08-21T00:15:16.020Z,6.80
2022-08-21T00:17:42.562Z,9.20
2022-08-21T00:20:11.183Z,6.93
2022-08-21T00:22:37.888Z,6.10
2022-08-21T00:25:06.786Z,7.13
2022-08-21T00:27:34.129Z,8.77
2022-08-21T00:30:00.609Z,7.17
2022-08-21T00:32:28.648Z,7.97
2022-08-21T00:34:55.925Z,6.90
2022-08-21T00:37:23.057Z,6.70
2022-08-21T00:39:50.406Z,9.37
2022-08-21T00:42:18.489Z,9.73
2022-08-21T00:44:50.786Z,7.00
2022-08-21T00:47:19.514Z,6.97
2022-08-21T00:49:46.181Z,6.50
2022-08-21T00:52:20.213Z,7.43
2022-08-21T00:54:49.045Z,8.40
2022-08-21T00:57:21.856Z,8.10
2022-08-21T00:59:54.686Z,7.63
2022-08-21T01:02:21.553Z,6.87
2022-08-21T01:04:48.609Z,6.73
2022-08-21T01:07:15.764Z,7.70
2022-08-21T01:09:42.776Z,8.20
2022-08-21T01:14:45.597Z,7.20
2022-08-21T01:17:14.870Z,6.67
2022-08-21T01:19:41.614Z,9.10
2022-08-21T01:22:08.466Z,7.13
2022-08-21T01:24:35.013Z,7.50
2022-08-21T01:27:02.321Z,10.23
2022-08-21T01:29:52.180Z,8.70
2022-08-21T01:32:20.765Z,8.60
2022-08-21T01:34:50.085Z,8.90
2022-08-21T01:37:17.790Z,7.20
2022-08-21T01:39:45.408Z,8.60
2022-08-21T01:42:12.581Z,5.70
2022-08-21T01:44:39.244Z,6.67
2022-08-21T01:47:09.985Z,9.40
2022-08-21T01:49:38.031Z,9.07
2022-08-21T01:52:06.035Z,11.50
2022-08-21T01:54:36.630Z,8.97
2022-08-21T01:57:03.846Z,8.63
2022-08-21T01:59:31.300Z,7.47
2022-08-21T02:01:58.355Z,6.93
2022-08-21T02:04:25.151Z,8.30
2022-08-21T02:06:51.842Z,9.83
2022-08-21T02:09:19.371Z,7.13
2022-08-21T02:11:46.898Z,6.70
2022-08-21T02:14:15.300Z,8.10
2022-08-21T02:17:05.066Z,8.20
2022-08-21T02:19:39.569Z,6.67
2022-08-21T02:22:07.428Z,7.03
2022-08-21T02:24:33.943Z,11.67
2022-08-21T02:27:00.477Z,6.97
2022-08-21T02:29:26.882Z,5.83
2022-08-21T02:31:54.043Z,6.47
2022-08-21T02:34:20.500Z,8.10
2022-08-21T02:36:46.956Z,7.10
2022-08-21T02:39:27.421Z,8.90
2022-08-21T02:41:54.361Z,7.77
2022-08-21T02:44:20.982Z,10.60
2022-08-21T02:46:56.648Z,8.17
2022-08-21T02:49:23.070Z,7.70
2022-08-21T02:51:49.517Z,7.73
2022-08-21T02:54:15.944Z,8.13
2022-08-21T02:56:42.384Z,6.70
2022-08-21T02:59:08.828Z,8.90
2022-08-21T03:01:35.272Z,6.13
2022-08-21T03:04:01.708Z,10.67
2022-08-21T03:06:28.148Z,7.07
2022-08-21T03:08:54.718Z,7.47
2022-08-21T03:11:21.816Z,6.60
2022-08-21T03:13:48.312Z,9.33
2022-08-21T03:16:15.245Z,8.10
2022-08-21T03:18:41.673Z,7.43
2022-08-21T03:21:08.326Z,10.67
2022-08-21T03:23:34.859Z,8.87
2022-08-21T03:26:01.906Z,7.97
2022-08-21T03:28:29.157Z,7.83
2022-08-21T03:30:56.323Z,13.10
2022-08-21T03:33:23.544Z,9.90
2022-08-21T03:35:59.552Z,9.63
2022-08-21T03:38:27.448Z,8.53
2022-08-21T03:40:54.375Z,7.60
2022-08-21T03:43:21.253Z,8.67
2022-08-21T03:45:47.932Z,7.43
2022-08-21T03:48:15.322Z,6.50
2022-08-21T03:50:44.134Z,7.73
2022-08-21T03:53:16.488Z,11.00
2022-08-21T03:55:48.975Z,7.63
2022-08-21T03:58:17.863Z,9.70
2022-08-21T04:00:49.836Z,7.20
2022-08-21T04:03:17.125Z,8.50
2022-08-21T04:05:43.748Z,7.80
2022-08-21T04:08:10.216Z,6.90
2022-08-21T04:10:38.933Z,9.67
2022-08-21T04:13:07.878Z,8.73
2022-08-21T04:15:34.953Z,9.63
2022-08-21T04:18:01.420Z,7.60
2022-08-21T04:20:28.325Z,8.40
2022-08-21T04:22:56.126Z,8.33
2022-08-21T04:25:23.755Z,9.53
2022-08-21T04:27:50.297Z,9.80
2022-08-21T04:30:17.594Z,7.70
2022-08-21T04:32:46.414Z,8.07
2022-08-21T04:35:14.431Z,8.87
2022-08-21T04:37:42.183Z,8.70
2022-08-21T04:40:11.014Z,7.47
2022-08-21T04:42:45.447Z,7.00
2022-08-21T04:45:28.189Z,12.37
2022-08-21T04:47:57.492Z,8.70
2022-08-21T04:50:30.035Z,11.60
2022-08-21T04:52:56.776Z,10.20
2022-08-21T04:55:25.255Z,10.40
2022-08-21T04:57:54.478Z,9.37
2022-08-21T05:00:22.756Z,8.07
2022-08-21T05:02:50.037Z,8.07
2022-08-21T05:05:17.079Z,7.97
2022-08-21T05:07:45.069Z,8.93
2022-08-21T05:10:12.396Z,8.30
2022-08-21T05:12:42.793Z,9.07
2022-08-21T05:15:13.309Z,10.97
2022-08-21T05:17:41.770Z,7.63
2022-08-21T05:20:12.287Z,8.37
2022-08-21T05:22:39.101Z,8.53
2022-08-21T05:25:10.293Z,9.17
2022-08-21T05:27:37.980Z,8.57
2022-08-21T05:30:08.477Z,11.50
2022-08-21T05:32:35.870Z,8.00
2022-08-21T05:35:03.702Z,9.17
2022-08-21T05:37:30.174Z,6.90
2022-08-21T05:40:20.579Z,8.60
2022-08-21T05:42:43.346Z,11.00
2022-08-21T05:45:09.850Z,9.37
2022-08-21T05:47:36.481Z,9.33
2022-08-21T05:50:04.012Z,9.53
2022-08-21T05:52:30.517Z,9.67
2022-08-21T05:54:57.012Z,8.97
2022-08-21T05:57:24.236Z,9.60
2022-08-21T05:59:51.349Z,9.37
2022-08-21T06:02:19.263Z,10.00
2022-08-21T06:04:45.852Z,12.13
2022-08-21T06:07:12.837Z,11.50
2022-08-21T06:09:39.274Z,11.77
2022-08-21T06:12:11.505Z,10.57
2022-08-21T06:14:39.898Z,10.63
2022-08-21T06:17:08.681Z,8.10
2022-08-21T06:19:35.650Z,12.50
2022-08-21T06:22:02.986Z,10.43
2022-08-21T06:24:29.645Z,7.47
2022-08-21T06:26:56.502Z,10.67
2022-08-21T06:29:23.603Z,11.13
2022-08-21T06:31:52.117Z,11.53
2022-08-21T06:34:19.150Z,8.10
2022-08-21T06:36:45.613Z,12.83
2022-08-21T06:39:16.397Z,14.50
2022-08-21T06:41:52.270Z,9.60
2022-08-21T06:44:19.945Z,10.87
2022-08-21T06:46:46.531Z,11.33
2022-08-21T06:49:21.272Z,13.70
2022-08-21T06:51:48.279Z,11.33
2022-08-21T06:54:14.760Z,9.20
2022-08-21T06:56:41.203Z,9.60
2022-08-21T06:59:07.644Z,8.57
2022-08-21T07:01:34.086Z,11.33
2022-08-21T07:04:00.581Z,9.67
2022-08-21T07:06:26.984Z,9.50
2022-08-21T07:08:53.813Z,8.93
2022-08-21T07:11:24.197Z,9.57
2022-08-21T07:13:53.635Z,10.90
2022-08-21T07:16:24.161Z,9.40
2022-08-21T07:18:50.715Z,6.57
2022-08-21T07:21:17.274Z,11.60
2022-08-21T07:23:47.765Z,10.60
2022-08-21T07:26:17.104Z,10.23
2022-08-21T07:28:45.894Z,11.40
2022-08-21T07:31:14.997Z,12.30
2022-08-21T07:33:42.229Z,11.20
2022-08-21T07:36:09.429Z,10.10
2022-08-21T07:38:36.491Z,11.77
2022-08-21T07:41:07.832Z,11.60
2022-08-21T07:43:34.315Z,11.83
2022-08-21T07:46:00.832Z,11.77
2022-08-21T07:48:27.380Z,6.63
2022-08-21T07:50:53.914Z,8.73
2022-08-21T07:53:20.328Z,10.07
2022-08-21T07:55:46.728Z,15.80
2022-08-21T07:58:13.774Z,11.93
2022-08-21T08:00:41.240Z,8.63
2022-08-21T08:03:07.726Z,12.93
2022-08-21T08:05:36.176Z,9.03
2022-08-21T08:08:02.784Z,13.33
2022-08-21T08:10:29.264Z,10.17
2022-08-21T08:12:56.138Z,9.53
2022-08-21T08:15:25.895Z,10.80
2022-08-21T08:17:53.258Z,12.67
2022-08-21T08:20:21.056Z,10.37
2022-08-21T08:22:50.177Z,10.70
2022-08-21T08:25:19.538Z,14.23
2022-08-21T08:27:46.009Z,10.83
2022-08-21T08:30:15.014Z,8.87
2022-08-21T08:32:42.130Z,9.03
2022-08-21T08:35:09.894Z,8.90
2022-08-21T08:37:41.313Z,12.27
2022-08-21T08:40:19.265Z,8.70
2022-08-21T08:42:48.265Z,10.67
2022-08-21T08:45:19.313Z,10.03
2022-08-21T08:47:50.162Z,9.13
2022-08-21T08:50:22.615Z,10.63
2022-08-21T08:52:58.700Z,7.07
2022-08-21T08:55:37.197Z,8.63
2022-08-21T08:58:04.946Z,9.43
2022-08-21T09:00:32.571Z,9.17
2022-08-21T09:03:01.944Z,5.33
2022-08-21T09:05:34.685Z,5.97
2022-08-21T09:08:01.050Z,9.30
2022-08-21T09:10:46.523Z,7.93
2022-08-21T09:13:50.823Z,5.43
2022-08-21T09:16:35.988Z,7.30
2022-08-21T09:19:14.002Z,6.77
2022-08-21T09:22:04.040Z,5.10
2022-08-21T09:24:52.147Z,6.13
2022-08-21T09:27:20.450Z,11.10
2022-08-21T09:29:49.498Z,7.33
2022-08-21T09:32:19.902Z,6.03
2022-08-21T09:35:05.321Z,5.40
2022-08-21T09:37:36.341Z,9.70
2022-08-21T09:40:16.456Z,6.17
2022-08-21T09:42:42.987Z,9.50
2022-08-21T09:45:16.758Z,6.37
2022-08-21T09:47:44.921Z,5.13
2022-08-21T09:50:15.935Z,7.10
2022-08-21T09:52:49.047Z,6.30
2022-08-21T09:55:42.588Z,6.37
2022-08-21T09:58:10.801Z,5.67
2022-08-21T10:00:37.624Z,5.43
2022-08-21T10:03:19.738Z,5.33
2022-08-21T10:06:01.364Z,8.70
2022-08-21T10:08:30.175Z,4.17
2022-08-21T10:11:03.768Z,6.63
2022-08-21T10:13:58.514Z,4.77
2022-08-21T10:16:40.320Z,4.87
2022-08-21T10:19:17.412Z,5.50
2022-08-21T10:21:46.929Z,7.23
2022-08-21T10:24:33.983Z,5.33
2022-08-21T10:27:31.609Z,6.60
2022-08-21T10:30:02.801Z,5.00
2022-08-21T10:32:42.087Z,5.50
2022-08-21T10:35:33.155Z,4.00
2022-08-21T10:38:16.415Z,6.43
2022-08-21T10:41:28.860Z,5.33
2022-08-21T10:44:13.686Z,5.30
2022-08-21T10:46:49.849Z,6.10
2022-08-21T10:49:26.154Z,5.20
2022-08-21T10:52:14.568Z,8.83
2022-08-21T10:54:58.749Z,6.30
2022-08-21T10:57:37.552Z,3.47
2022-08-21T11:00:12.662Z,5.73
2022-08-21T11:02:57.545Z,4.00
2022-08-21T11:05:39.636Z,5.87
2022-08-21T11:08:23.130Z,5.37
2022-08-21T11:10:59.268Z,5.20
2022-08-21T11:13:54.986Z,5.43
2022-08-21T11:16:27.257Z,6.20
2022-08-21T11:19:01.881Z,5.40
2022-08-21T11:21:37.181Z,5.20
2022-08-21T11:24:16.054Z,5.87
2022-08-21T11:26:51.292Z,6.80
2022-08-21T11:29:29.621Z,4.00
2022-08-21T11:32:33.743Z,6.40
2022-08-21T11:35:18.973Z,5.17
2022-08-21T11:37:45.305Z,12.40
2022-08-21T11:40:48.873Z,5.63
2022-08-21T11:43:28.637Z,3.40
2022-08-21T11:46:00.866Z,4.80
2022-08-21T11:48:44.439Z,3.43
2022-08-21T11:51:23.836Z,4.50
2022-08-21T11:54:00.203Z,5.50
2022-08-21T11:56:34.722Z,4.77
2022-08-21T11:59:07.819Z,4.17
2022-08-21T12:01:41.159Z,5.83
2022-08-21T12:04:11.036Z,6.27
2022-08-21T12:06:41.435Z,4.57
2022-08-21T12:09:11.065Z,5.80
2022-08-21T12:12:02.735Z,6.33
2022-08-21T12:14:47.361Z,3.20
2022-08-21T12:17:35.186Z,7.37
2022-08-21T12:20:17.987Z,4.83
2022-08-21T12:22:53.463Z,6.30
2022-08-21T12:25:23.224Z,7.90
2022-08-21T12:28:11.631Z,5.37
2022-08-21T12:30:46.153Z,5.87
2022-08-21T12:33:24.370Z,6.40
2022-08-21T12:35:53.696Z,6.30
2022-08-21T12:38:24.813Z,5.77
2022-08-21T12:41:02.768Z,2.90
2022-08-21T12:43:35.712Z,3.90
2022-08-21T12:46:05.420Z,2.40
2022-08-21T12:48:44.805Z,3.43
2022-08-21T12:51:14.361Z,3.67
2022-08-21T12:53:56.508Z,7.17
2022-08-21T12:56:31.194Z,4.50
2022-08-21T12:59:07.538Z,4.63
2022-08-21T13:01:46.015Z,3.10
2022-08-21T13:04:18.413Z,3.60
2022-08-21T13:06:48.548Z,2.53
2022-08-21T13:09:17.927Z,3.30
2022-08-21T13:11:46.875Z,3.37
2022-08-21T13:14:35.891Z,3.93
2022-08-21T13:17:12.569Z,4.30
2022-08-21T13:19:39.129Z,2.37
2022-08-21T13:22:34.122Z,8.30
2022-08-21T13:25:01.703Z,3.00
2022-08-21T13:27:33.329Z,5.23
2022-08-21T13:30:15.626Z,5.73
2022-08-21T13:32:51.124Z,3.30
2022-08-21T13:35:21.538Z,4.07
2022-08-21T13:37:50.751Z,5.30
2022-08-21T13:40:21.176Z,5.47
2022-08-21T13:42:49.285Z,2.70
2022-08-21T13:45:25.093Z,4.13
2022-08-21T13:47:54.020Z,5.60
2022-08-21T13:50:23.936Z,3.10
2022-08-21T13:53:05.051Z,3.70
2022-08-21T13:55:40.980Z,2.63
2022-08-21T13:58:08.149Z,3.90
2022-08-21T14:00:44.334Z,3.13
2022-08-21T14:03:12.263Z,4.30
2022-08-21T14:05:46.283Z,5.67
2022-08-21T14:08:30.315Z,6.30
2022-08-21T14:10:58.008Z,4.47
2022-08-21T14:13:38.669Z,4.40
2022-08-21T14:16:11.767Z,2.80
2022-08-21T14:18:51.110Z,5.07
2022-08-21T14:21:29.344Z,3.40
2022-08-21T14:24:08.716Z,5.60
2022-08-21T14:26:43.362Z,2.70
2022-08-21T14:29:10.779Z,3.97
2022-08-21T14:31:43.227Z,2.73
2022-08-21T14:34:19.294Z,2.93
2022-08-21T14:36:47.850Z,2.03
2022-08-21T14:39:14.327Z,4.77
2022-08-21T14:41:41.092Z,3.90
2022-08-21T14:44:09.531Z,4.97
2022-08-21T14:46:45.788Z,6.13
2022-08-21T14:49:23.905Z,2.53
2022-08-21T14:51:54.681Z,3.87
2022-08-21T14:54:23.258Z,3.37
2022-08-21T14:57:00.521Z,3.43
2022-08-21T14:59:26.952Z,3.43
2022-08-21T15:01:53.443Z,4.53
2022-08-21T15:04:20.018Z,3.83
2022-08-21T15:06:46.459Z,4.00
2022-08-21T15:09:12.856Z,4.07
2022-08-21T15:11:41.761Z,3.33
2022-08-21T15:14:21.733Z,2.60
2022-08-21T15:16:49.467Z,5.77
2022-08-21T15:19:15.874Z,4.43
2022-08-21T15:21:42.375Z,3.03
2022-08-21T15:24:08.784Z,4.30
2022-08-21T15:26:36.910Z,5.40
2022-08-21T15:29:06.678Z,2.60
2022-08-21T15:31:33.740Z,4.30
2022-08-21T15:34:00.162Z,4.97
2022-08-21T15:36:26.601Z,3.30
2022-08-21T15:38:53.079Z,5.90
2022-08-21T15:41:19.848Z,3.50
2022-08-21T15:43:50.047Z,3.50
2022-08-21T15:46:19.004Z,5.07
2022-08-21T15:48:47.120Z,4.30
2022-08-21T15:51:15.387Z,4.47
2022-08-21T15:53:41.829Z,3.47
2022-08-21T15:56:21.874Z,5.43
2022-08-21T15:58:48.815Z,4.77
2022-08-21T16:01:15.307Z,3.50
2022-08-21T16:03:43.189Z,3.87
2022-08-21T16:06:09.620Z,3.13
2022-08-21T16:08:36.096Z,2.27
2022-08-21T16:11:02.657Z,3.23
2022-08-21T16:13:33.542Z,3.03
2022-08-21T16:16:00.149Z,5.73
2022-08-21T16:18:27.360Z,4.70
2022-08-21T16:20:53.999Z,4.47
2022-08-21T16:23:20.397Z,5.77
2022-08-21T16:25:47.583Z,3.13
2022-08-21T16:28:16.557Z,5.40
2022-08-21T16:30:47.196Z,4.57
2022-08-21T16:33:27.833Z,3.60
2022-08-21T16:35:54.484Z,2.73
2022-08-21T16:38:20.950Z,4.57
2022-08-21T16:40:47.552Z,6.03
2022-08-21T16:43:14.022Z,3.03
2022-08-21T16:45:42.176Z,4.63
2022-08-21T16:48:09.733Z,5.37
2022-08-21T16:50:37.822Z,4.50
2022-08-21T16:53:04.616Z,4.80
2022-08-21T16:55:31.348Z,3.93
2022-08-21T16:57:57.902Z,3.73
2022-08-21T17:00:24.468Z,6.33
2022-08-21T17:02:54.660Z,5.93
2022-08-21T17:05:21.208Z,7.63
2022-08-21T17:07:47.820Z,4.67
2022-08-21T17:10:16.689Z,3.30
2022-08-21T17:12:46.449Z,5.63
2022-08-21T17:15:24.711Z,6.87
2022-08-21T17:17:51.950Z,5.70
2022-08-21T17:20:19.849Z,4.30
2022-08-21T17:22:46.330Z,5.20
2022-08-21T17:25:13.004Z,3.80
2022-08-21T17:27:40.210Z,5.07
2022-08-21T17:30:08.045Z,12.53
2022-08-21T17:32:34.605Z,5.50
2022-08-21T17:35:01.089Z,3.60
2022-08-21T17:37:29.416Z,5.03
2022-08-21T17:39:56.603Z,4.03
2022-08-21T17:42:25.128Z,3.50
2022-08-21T17:44:51.844Z,2.70
2022-08-21T17:47:18.289Z,9.13
2022-08-21T17:49:44.739Z,6.67
2022-08-21T17:52:11.557Z,4.83
2022-08-21T17:54:38.032Z,6.37
2022-08-21T17:57:05.000Z,4.10
2022-08-21T17:59:32.293Z,4.50
2022-08-21T18:02:01.636Z,4.03
2022-08-21T18:04:29.529Z,7.17
2022-08-21T18:06:56.241Z,4.07
2022-08-21T18:09:28.812Z,5.97
2022-08-21T18:11:57.164Z,4.60
2022-08-21T18:14:28.663Z,4.70
2022-08-21T18:16:56.304Z,6.00
2022-08-21T18:19:25.925Z,4.10
2022-08-21T18:21:56.236Z,3.33
2022-08-21T18:24:23.603Z,2.60
2022-08-21T18:26:50.448Z,3.10
2022-08-21T18:29:20.699Z,4.80
2022-08-21T18:31:47.715Z,5.90
2022-08-21T18:34:35.625Z,5.20
2022-08-21T18:37:02.949Z,3.90
2022-08-21T18:39:38.000Z,4.03
2022-08-21T18:42:10.073Z,3.90
2022-08-21T18:44:37.497Z,4.70
2022-08-21T18:47:11.880Z,3.40
2022-08-21T18:49:39.016Z,4.80
2022-08-21T18:52:08.126Z,4.10
2022-08-21T18:54:37.334Z,3.97
2022-08-21T18:59:54.217Z,2.40
2022-08-21T19:02:20.714Z,3.07
2022-08-21T19:04:47.984Z,5.03
2022-08-21T19:07:16.145Z,3.33
2022-08-21T19:12:30.312Z,2.60
2022-08-21T19:14:58.195Z,3.30
2022-08-21T19:17:25.033Z,9.73
2022-08-21T19:19:52.269Z,5.23
2022-08-21T19:22:19.673Z,7.70
2022-08-21T19:24:49.875Z,4.87
2022-08-21T19:27:17.404Z,2.33
2022-08-21T19:29:43.937Z,7.43
2022-08-21T19:32:10.991Z,3.77
2022-08-21T19:34:39.884Z,3.47
2022-08-21T19:37:06.583Z,4.47
2022-08-21T19:39:39.489Z,4.00
2022-08-21T19:42:10.208Z,2.00
2022-08-21T19:44:37.912Z,2.70
2022-08-21T19:47:13.255Z,3.50
2022-08-21T19:49:49.960Z,4.57
2022-08-21T19:52:16.503Z,4.23
2022-08-21T19:54:44.636Z,4.07
2022-08-21T19:57:12.136Z,3.50
2022-08-21T19:59:40.551Z,2.90
2022-08-21T20:02:07.836Z,2.50
2022-08-21T20:04:34.375Z,5.43
2022-08-21T20:07:01.141Z,3.07
2022-08-21T20:09:27.921Z,3.53
2022-08-21T20:11:57.776Z,4.70
2022-08-21T20:14:31.072Z,2.97
2022-08-21T20:17:05.838Z,3.00
2022-08-21T20:19:32.400Z,3.17
2022-08-21T20:21:58.891Z,3.83
2022-08-21T20:24:27.462Z,2.97
2022-08-21T20:26:55.058Z,2.57
2022-08-21T20:29:24.510Z,2.20
2022-08-21T20:31:56.274Z,4.03
2022-08-21T20:34:22.954Z,3.40
2022-08-21T20:36:52.229Z,2.73
2022-08-21T20:39:19.905Z,5.93
2022-08-21T20:41:51.565Z,6.37
2022-08-21T20:44:18.063Z,3.00
2022-08-21T20:46:44.914Z,4.00
2022-08-21T20:49:17.434Z,5.13
2022-08-21T20:51:51.488Z,3.77
2022-08-21T20:54:29.689Z,4.40
2022-08-21T20:57:18.191Z,2.70
2022-08-21T20:59:50.680Z,4.83
2022-08-21T21:02:29.171Z,8.93
2022-08-21T21:05:02.882Z,7.00
2022-08-21T21:07:54.884Z,2.40
2022-08-21T21:10:36.619Z,3.20
2022-08-21T21:13:13.581Z,3.87
2022-08-21T21:15:43.389Z,3.27
2022-08-21T21:18:16.625Z,3.60
2022-08-21T21:20:51.736Z,3.53
2022-08-21T21:23:38.902Z,3.40
2022-08-21T21:26:22.097Z,7.50
2022-08-21T21:29:10.493Z,3.00
2022-08-21T21:31:37.322Z,4.93
2022-08-21T21:34:03.891Z,4.47
2022-08-21T21:36:56.432Z,5.50
2022-08-21T21:39:36.405Z,2.97
2022-08-21T21:42:38.578Z,2.67
2022-08-21T21:45:26.680Z,2.90
2022-08-21T21:48:00.708Z,4.83
2022-08-21T21:50:50.947Z,2.20
2022-08-21T21:53:28.461Z,3.67
2022-08-21T21:56:07.122Z,5.63
2022-08-21T21:58:59.748Z,6.03
2022-08-21T22:01:40.848Z,4.10
2022-08-21T22:04:56.786Z,3.87
2022-08-21T22:07:40.148Z,5.00
2022-08-21T22:13:26.373Z,4.83
2022-08-21T22:15:54.589Z,4.30
2022-08-21T22:18:26.157Z,6.00
2022-08-21T22:20:58.219Z,3.70
2022-08-21T22:23:30.058Z,2.80
2022-08-21T22:26:05.471Z,3.63
2022-08-21T22:28:37.637Z,2.90
2022-08-21T22:31:12.286Z,4.13
2022-08-21T22:33:41.126Z,4.70
2022-08-21T22:36:18.320Z,3.10
2022-08-21T22:38:46.381Z,4.03
2022-08-21T22:41:27.949Z,2.97
2022-08-21T22:44:03.939Z,6.63
2022-08-21T22:46:44.882Z,2.70
2022-08-21T22:49:21.710Z,4.33
2022-08-21T22:52:05.255Z,6.13
2022-08-21T22:54:38.664Z,3.60
2022-08-21T22:57:09.042Z,3.63
2022-08-21T22:59:52.737Z,3.17
2022-08-21T23:02:30.535Z,2.33
2022-08-21T23:05:00.833Z,13.30
2022-08-21T23:07:43.710Z,3.30
2022-08-21T23:10:32.806Z,3.93
2022-08-21T23:13:09.175Z,2.87
2022-08-21T23:15:59.132Z,1.97
2022-08-21T23:19:02.667Z,4.30
2022-08-21T23:21:52.310Z,2.80
2022-08-21T23:24:27.506Z,2.43
2022-08-21T23:27:13.520Z,4.70
2022-08-21T23:30:02.062Z,2.33
2022-08-21T23:33:11.580Z,3.33
2022-08-21T23:36:07.707Z,3.33
2022-08-21T23:41:42.401Z,6.60
2022-08-21T23:44:31.233Z,3.07
2022-08-21T23:47:06.097Z,4.20
2022-08-21T23:49:53.804Z,4.67
2022-08-21T23:52:48.895Z,2.03
2022-08-21T23:55:20.435Z,3.47
2022-08-21T23:58:18.818Z,6.70
